createdAt,value
2023-04-24T00:00:58.524Z,6.30
2023-04-24T00:04:02.849Z,7.00
2023-04-24T00:07:07.700Z,6.73
2023-04-24T00:10:11.959Z,6.67
2023-04-24T00:13:16.488Z,6.67
2023-04-24T00:16:19.679Z,6.73
2023-04-24T00:19:23.360Z,5.87
2023-04-24T00:22:26.915Z,7.63
2023-04-24T00:25:30.234Z,7.17
2023-04-24T00:28:35.140Z,6.67
2023-04-24T00:31:38.367Z,6.40
2023-04-24T00:34:41.688Z,7.67
2023-04-24T00:37:44.811Z,7.57
2023-04-24T00:40:48.840Z,7.13
2023-04-24T00:43:53.889Z,7.10
2023-04-24T00:46:57.502Z,6.83
2023-04-24T00:50:00.643Z,7.27
2023-04-24T00:53:03.841Z,7.20
2023-04-24T00:56:07.626Z,7.07
2023-04-24T00:59:12.412Z,7.90
2023-04-24T01:02:16.854Z,7.07
2023-04-24T01:05:20.562Z,7.63
2023-04-24T01:08:25.803Z,7.80
2023-04-24T01:11:28.892Z,7.70
2023-04-24T01:14:33.623Z,7.63
2023-04-24T01:17:37.018Z,7.60
2023-04-24T01:20:42.328Z,7.27
2023-04-24T01:23:47.460Z,7.10
2023-04-24T01:26:50.791Z,7.20
2023-04-24T01:29:54.571Z,7.30
2023-04-24T01:32:58.222Z,7.80
2023-04-24T01:36:01.996Z,7.40
2023-04-24T01:39:06.593Z,6.90
2023-04-24T01:42:09.745Z,7.17
2023-04-24T01:45:14.427Z,6.67
2023-04-24T01:48:17.662Z,7.23
2023-04-24T01:51:20.874Z,7.23
2023-04-24T01:54:25.352Z,8.33
2023-04-24T01:57:28.542Z,7.43
2023-04-24T02:00:31.680Z,7.70
2023-04-24T02:03:35.011Z,8.27
2023-04-24T02:06:38.758Z,7.70
2023-04-24T02:09:43.491Z,7.40
2023-04-24T02:12:46.774Z,7.60
2023-04-24T02:15:49.902Z,7.27
2023-04-24T02:18:53.028Z,8.07
2023-04-24T02:21:56.163Z,7.20
2023-04-24T02:25:00.756Z,7.10
2023-04-24T02:28:04.000Z,7.37
2023-04-24T02:31:07.432Z,8.27
2023-04-24T02:34:10.591Z,7.67
2023-04-24T02:37:13.656Z,7.90
2023-04-24T02:40:18.206Z,8.93
2023-04-24T02:43:21.300Z,8.07
2023-04-24T02:46:27.692Z,8.60
2023-04-24T02:49:31.103Z,8.03
2023-04-24T02:52:34.110Z,7.53
2023-04-24T02:55:38.565Z,9.00
2023-04-24T02:58:41.676Z,7.87
2023-04-24T03:01:44.966Z,7.40
2023-04-24T03:04:48.869Z,8.93
2023-04-24T03:07:53.711Z,8.70
2023-04-24T03:10:58.187Z,8.50
2023-04-24T03:14:01.553Z,9.13
2023-04-24T03:17:05.448Z,9.13
2023-04-24T03:20:10.199Z,8.90
2023-04-24T03:23:13.315Z,8.83
2023-04-24T03:26:17.708Z,9.73
2023-04-24T03:29:20.802Z,9.10
2023-04-24T03:32:25.677Z,9.17
2023-04-24T03:35:28.826Z,12.07
2023-04-24T03:38:32.018Z,9.10
2023-04-24T03:41:36.586Z,8.77
2023-04-24T03:44:39.769Z,9.00
2023-04-24T03:47:43.973Z,9.00
2023-04-24T03:50:47.239Z,9.17
2023-04-24T03:53:50.265Z,9.03
2023-04-24T03:56:54.692Z,9.00
2023-04-24T03:59:58.109Z,8.70
2023-04-24T04:03:01.373Z,8.37
2023-04-24T04:06:04.981Z,8.83
2023-04-24T04:09:09.550Z,9.37
2023-04-24T04:12:14.025Z,9.27
2023-04-24T04:15:18.436Z,9.47
2023-04-24T04:18:21.578Z,9.13
2023-04-24T04:21:24.871Z,9.40
2023-04-24T04:24:27.854Z,9.10
2023-04-24T04:27:35.699Z,8.63
2023-04-24T04:30:39.327Z,8.57
2023-04-24T04:33:42.341Z,9.43
2023-04-24T04:36:47.299Z,8.77
2023-04-24T04:39:50.407Z,8.60
2023-04-24T04:42:55.048Z,8.53
2023-04-24T04:45:58.693Z,9.33
2023-04-24T04:49:02.316Z,9.13
2023-04-24T04:52:05.301Z,8.00
2023-04-24T04:55:09.249Z,8.67
2023-04-24T04:58:14.973Z,8.70
2023-04-24T05:01:18.606Z,9.43
2023-04-24T05:04:22.373Z,8.57
2023-04-24T05:07:25.519Z,8.47
2023-04-24T05:10:29.146Z,9.00
2023-04-24T05:13:39.708Z,8.40
2023-04-24T05:16:44.245Z,7.73
2023-04-24T05:19:47.584Z,8.47
2023-04-24T05:22:50.610Z,8.00
2023-04-24T05:25:53.612Z,8.47
2023-04-24T05:28:57.932Z,7.23
2023-04-24T05:32:01.491Z,6.97
2023-04-24T05:35:05.019Z,6.63
2023-04-24T05:38:08.405Z,6.20
2023-04-24T05:41:11.547Z,5.63
2023-04-24T05:44:15.992Z,5.73
2023-04-24T05:47:18.996Z,5.23
2023-04-24T05:50:22.270Z,4.10
2023-04-24T05:53:25.302Z,4.47
2023-04-24T05:56:28.423Z,4.53
2023-04-24T05:59:33.303Z,4.87
2023-04-24T06:02:36.891Z,3.87
2023-04-24T06:05:40.147Z,3.90
2023-04-24T06:08:45.205Z,3.77
2023-04-24T06:11:48.344Z,3.73
2023-04-24T06:14:52.716Z,3.50
2023-04-24T06:17:58.221Z,3.67
2023-04-24T06:21:01.239Z,4.37
2023-04-24T06:24:05.544Z,4.07
2023-04-24T06:27:08.819Z,3.53
2023-04-24T06:30:14.073Z,3.43
2023-04-24T06:33:21.236Z,4.00
2023-04-24T06:36:25.414Z,3.70
2023-04-24T06:39:29.013Z,3.60
2023-04-24T06:42:32.020Z,3.37
2023-04-24T06:45:36.576Z,3.80
2023-04-24T06:48:39.695Z,3.40
2023-04-24T06:51:42.848Z,3.10
2023-04-24T06:54:47.222Z,3.13
2023-04-24T06:57:50.646Z,2.73
2023-04-24T07:00:55.246Z,2.80
2023-04-24T07:03:58.526Z,2.70
2023-04-24T07:07:05.718Z,2.80
2023-04-24T07:10:09.852Z,2.70
2023-04-24T07:13:12.873Z,3.03
2023-04-24T07:16:17.497Z,2.47
2023-04-24T07:19:20.493Z,2.50
2023-04-24T07:22:23.837Z,2.27
2023-04-24T07:25:26.869Z,2.30
2023-04-24T07:28:32.154Z,2.00
2023-04-24T07:31:36.639Z,2.20
2023-04-24T07:34:39.642Z,1.90
2023-04-24T07:37:46.588Z,3.40
2023-04-24T07:40:49.798Z,1.70
2023-04-24T07:43:53.540Z,2.40
2023-04-24T07:46:58.461Z,1.80
2023-04-24T07:50:01.790Z,1.80
2023-04-24T07:53:05.010Z,1.90
2023-04-24T07:56:08.337Z,2.00
2023-04-24T07:59:12.055Z,1.73
2023-04-24T08:02:16.582Z,1.40
2023-04-24T08:05:19.840Z,1.67
2023-04-24T08:08:24.965Z,2.67
2023-04-24T08:11:28.345Z,1.73
2023-04-24T08:14:31.347Z,1.87
2023-04-24T08:17:36.442Z,1.80
2023-04-24T08:20:39.506Z,1.63
2023-04-24T08:23:42.749Z,1.53
2023-04-24T08:26:46.042Z,1.97
2023-04-24T08:29:49.504Z,1.57
2023-04-24T08:32:53.856Z,1.70
2023-04-24T08:35:56.855Z,1.73
2023-04-24T08:39:00.026Z,2.00
2023-04-24T08:42:08.835Z,1.80
2023-04-24T08:45:13.128Z,1.80
2023-04-24T08:48:29.696Z,1.70
2023-04-24T08:51:35.031Z,1.90
2023-04-24T08:54:39.006Z,1.63
2023-04-24T08:57:42.276Z,1.50
2023-04-24T09:00:48.150Z,1.50
2023-04-24T09:03:55.287Z,1.90
2023-04-24T09:07:01.731Z,1.50
2023-04-24T09:10:05.429Z,1.40
2023-04-24T09:13:10.348Z,1.70
2023-04-24T09:16:13.873Z,1.60
2023-04-24T09:19:18.869Z,1.50
2023-04-24T09:22:23.208Z,2.00
2023-04-24T09:25:32.826Z,1.80
2023-04-24T09:28:39.110Z,1.97
2023-04-24T09:31:42.202Z,2.53
2023-04-24T09:34:50.056Z,1.73
2023-04-24T09:37:52.997Z,1.50
2023-04-24T09:40:56.214Z,1.80
2023-04-24T09:44:03.760Z,1.80
2023-04-24T09:47:11.690Z,1.70
2023-04-24T09:50:19.895Z,1.70
2023-04-24T09:53:27.195Z,2.83
2023-04-24T09:56:30.321Z,1.87
2023-04-24T09:59:34.581Z,1.70
2023-04-24T10:02:39.354Z,1.90
2023-04-24T10:05:44.668Z,2.03
2023-04-24T10:08:48.514Z,2.33
2023-04-24T10:11:54.418Z,1.83
2023-04-24T10:14:58.494Z,1.70
2023-04-24T10:18:01.973Z,1.80
2023-04-24T10:21:07.374Z,1.70
2023-04-24T10:24:11.077Z,1.83
2023-04-24T10:27:16.630Z,1.80
2023-04-24T10:30:21.022Z,1.70
2023-04-24T10:33:25.696Z,1.90
2023-04-24T10:36:33.821Z,2.03
2023-04-24T10:39:38.414Z,2.20
2023-04-24T10:42:43.662Z,1.97
2023-04-24T10:46:03.487Z,1.80
2023-04-24T10:49:09.733Z,1.60
2023-04-24T10:52:14.429Z,2.00
2023-04-24T10:55:17.432Z,1.87
2023-04-24T10:58:24.785Z,2.00
2023-04-24T11:01:29.077Z,2.00
2023-04-24T11:04:33.415Z,3.60
2023-04-24T11:08:09.661Z,2.00
2023-04-24T11:11:15.702Z,1.70
2023-04-24T11:14:18.821Z,1.90
2023-04-24T11:17:31.238Z,2.53
2023-04-24T11:20:34.286Z,3.43
2023-04-24T11:23:39.038Z,2.70
2023-04-24T11:26:43.394Z,2.13
2023-04-24T11:29:49.530Z,2.43
2023-04-24T11:32:53.534Z,3.07
2023-04-24T11:35:56.929Z,1.80
2023-04-24T11:39:00.376Z,2.00
2023-04-24T11:42:08.106Z,2.80
2023-04-24T11:45:12.508Z,2.50
2023-04-24T11:48:22.777Z,2.20
2023-04-24T11:51:31.138Z,2.30
2023-04-24T11:54:39.467Z,2.20
2023-04-24T11:57:45.634Z,2.40
2023-04-24T12:00:57.439Z,2.00
2023-04-24T12:04:02.690Z,2.13
2023-04-24T12:07:06.393Z,2.23
2023-04-24T12:10:10.425Z,2.37
2023-04-24T12:13:15.843Z,2.60
2023-04-24T12:16:18.932Z,2.70
2023-04-24T12:19:23.941Z,2.10
2023-04-24T12:22:27.026Z,2.20
2023-04-24T12:25:31.360Z,2.53
2023-04-24T12:28:39.635Z,2.13
2023-04-24T12:31:42.624Z,2.20
2023-04-24T12:34:45.896Z,2.73
2023-04-24T12:37:49.133Z,3.67
2023-04-24T12:41:05.174Z,5.77
2023-04-24T12:44:13.160Z,2.30
2023-04-24T12:47:16.352Z,1.60
2023-04-24T12:50:19.498Z,2.10
2023-04-24T12:53:22.400Z,1.97
2023-04-24T12:56:25.849Z,1.93
2023-04-24T12:59:30.171Z,1.70
2023-04-24T13:02:33.450Z,1.70
2023-04-24T13:05:36.484Z,1.80
2023-04-24T13:08:39.421Z,1.67
2023-04-24T13:11:42.689Z,1.70
2023-04-24T13:14:47.499Z,1.97
2023-04-24T13:17:50.535Z,1.87
2023-04-24T13:20:53.502Z,1.73
2023-04-24T13:23:56.435Z,1.60
2023-04-24T13:26:59.404Z,3.50
2023-04-24T13:30:04.210Z,2.60
2023-04-24T13:33:07.255Z,1.80
2023-04-24T13:36:10.572Z,1.63
2023-04-24T13:39:13.664Z,1.63
2023-04-24T13:42:16.673Z,1.77
2023-04-24T13:45:25.342Z,3.70
2023-04-24T13:48:28.707Z,1.80
2023-04-24T13:51:31.892Z,1.70
2023-04-24T13:54:35.090Z,7.43
2023-04-24T13:57:38.147Z,1.83
2023-04-24T14:00:42.566Z,3.90
2023-04-24T14:03:46.083Z,3.10
2023-04-24T14:06:49.318Z,1.83
2023-04-24T14:09:52.276Z,1.67
2023-04-24T14:12:58.190Z,2.43
2023-04-24T14:16:02.671Z,1.90
2023-04-24T14:19:06.419Z,2.43
2023-04-24T14:22:09.491Z,1.93
2023-04-24T14:25:12.458Z,3.53
2023-04-24T14:28:15.641Z,1.90
2023-04-24T14:31:19.970Z,1.70
2023-04-24T14:34:23.160Z,1.80
2023-04-24T14:37:26.436Z,1.80
2023-04-24T14:40:56.037Z,4.23
2023-04-24T14:43:52.331Z,2.37
2023-04-24T14:46:57.008Z,2.73
2023-04-24T14:50:01.106Z,2.00
2023-04-24T14:53:04.099Z,2.93
2023-04-24T14:56:07.544Z,2.03
2023-04-24T14:59:10.957Z,2.13
2023-04-24T15:02:18.977Z,2.27
2023-04-24T15:05:26.162Z,3.03
2023-04-24T15:08:29.463Z,1.97
2023-04-24T15:11:34.339Z,2.00
2023-04-24T15:14:37.416Z,6.07
2023-04-24T15:17:41.766Z,2.83
2023-04-24T15:20:46.762Z,2.20
2023-04-24T15:23:50.074Z,2.27
2023-04-24T15:26:53.275Z,2.30
2023-04-24T15:29:56.675Z,3.70
2023-04-24T15:33:02.513Z,2.27
2023-04-24T15:36:06.047Z,2.37
2023-04-24T15:39:10.899Z,2.60
2023-04-24T15:42:13.865Z,2.33
2023-04-24T15:45:17.091Z,2.30
2023-04-24T15:48:21.382Z,2.10
2023-04-24T15:51:25.018Z,2.13
2023-04-24T15:54:27.958Z,2.40
2023-04-24T15:57:31.482Z,2.27
2023-04-24T16:00:35.480Z,2.37
2023-04-24T16:03:40.171Z,2.30
2023-04-24T16:06:44.693Z,2.23
2023-04-24T16:09:47.718Z,2.20
2023-04-24T16:12:51.667Z,2.00
2023-04-24T16:15:54.641Z,2.20
2023-04-24T16:18:59.045Z,2.43
2023-04-24T16:22:03.114Z,2.67
2023-04-24T16:25:06.823Z,4.83
2023-04-24T16:28:10.979Z,5.80
2023-04-24T16:31:14.017Z,6.17
2023-04-24T16:34:18.546Z,2.23
2023-04-24T16:37:21.764Z,2.53
2023-04-24T16:40:24.791Z,2.10
2023-04-24T16:43:28.143Z,2.33
2023-04-24T16:46:31.397Z,2.87
2023-04-24T16:49:35.767Z,2.83
2023-04-24T16:52:39.118Z,2.30
2023-04-24T16:55:42.264Z,2.17
2023-04-24T16:58:45.338Z,2.73
2023-04-24T17:01:49.376Z,4.33
2023-04-24T17:04:53.770Z,4.20
2023-04-24T17:07:57.263Z,2.40
2023-04-24T17:11:00.217Z,1.97
2023-04-24T17:14:03.548Z,2.40
2023-04-24T17:17:06.725Z,2.47
2023-04-24T17:20:21.979Z,2.40
2023-04-24T17:23:25.970Z,2.40
2023-04-24T17:26:32.293Z,2.40
2023-04-24T17:29:35.515Z,2.40
2023-04-24T17:32:38.451Z,2.43
2023-04-24T17:35:42.852Z,2.40
2023-04-24T17:38:46.057Z,2.63
2023-04-24T17:41:49.044Z,2.60
2023-04-24T17:44:51.980Z,2.77
2023-04-24T17:47:56.574Z,2.40
2023-04-24T17:51:01.013Z,3.80
2023-04-24T17:54:04.019Z,2.60
2023-04-24T17:57:07.001Z,3.27
2023-04-24T18:00:11.298Z,2.90
2023-04-24T18:03:14.375Z,2.47
2023-04-24T18:06:19.317Z,2.97
2023-04-24T18:09:22.408Z,2.30
2023-04-24T18:12:25.611Z,2.63
2023-04-24T18:15:28.643Z,2.93
2023-04-24T18:18:35.029Z,2.90
2023-04-24T18:21:41.849Z,4.17
2023-04-24T18:24:45.530Z,3.43
2023-04-24T18:27:48.488Z,2.20
2023-04-24T18:30:51.536Z,2.50
2023-04-24T18:33:55.734Z,2.23
2023-04-24T18:37:00.120Z,2.60
2023-04-24T18:40:03.802Z,2.97
2023-04-24T18:43:07.532Z,2.67
2023-04-24T18:46:10.561Z,2.13
2023-04-24T18:49:15.966Z,2.20
2023-04-24T18:52:20.252Z,2.93
2023-04-24T18:55:23.149Z,2.23
2023-04-24T18:58:26.128Z,2.23
2023-04-24T19:01:29.291Z,2.50
2023-04-24T19:04:32.364Z,2.07
2023-04-24T19:07:36.752Z,2.30
2023-04-24T19:10:40.584Z,2.20
2023-04-24T19:13:43.851Z,2.30
2023-04-24T19:16:47.370Z,3.53
2023-04-24T19:19:51.081Z,2.27
2023-04-24T19:22:55.502Z,2.20
2023-04-24T19:25:58.781Z,2.00
2023-04-24T19:29:03.162Z,2.20
2023-04-24T19:32:08.644Z,4.13
2023-04-24T19:35:11.664Z,2.33
2023-04-24T19:38:16.116Z,2.70
2023-04-24T19:41:22.178Z,2.50
2023-04-24T19:44:25.497Z,2.20
2023-04-24T19:47:28.493Z,2.30
2023-04-24T19:50:32.088Z,2.60
2023-04-24T19:53:36.548Z,2.87
2023-04-24T19:56:39.727Z,2.80
2023-04-24T19:59:42.812Z,3.07
2023-04-24T20:02:47.386Z,2.93
2023-04-24T20:05:50.607Z,3.00
2023-04-24T20:08:55.117Z,3.23
2023-04-24T20:11:58.152Z,3.30
2023-04-24T20:15:01.238Z,3.20
2023-04-24T20:18:04.565Z,5.10
2023-04-24T20:21:07.682Z,4.43
2023-04-24T20:24:12.148Z,3.67
2023-04-24T20:27:16.483Z,3.70
2023-04-24T20:30:19.533Z,4.00
2023-04-24T20:33:23.705Z,3.93
2023-04-24T20:36:27.101Z,4.00
2023-04-24T20:39:31.613Z,4.40
2023-04-24T20:42:34.728Z,4.30
2023-04-24T20:45:37.898Z,3.80
2023-04-24T20:48:41.483Z,4.47
2023-04-24T20:51:44.452Z,4.30
2023-04-24T20:54:49.604Z,3.93
2023-04-24T20:57:53.216Z,4.63
2023-04-24T21:00:56.510Z,3.60
2023-04-24T21:03:59.776Z,4.93
2023-04-24T21:07:02.973Z,4.10
2023-04-24T21:10:09.666Z,3.97
2023-04-24T21:13:12.669Z,4.33
2023-04-24T21:16:15.735Z,4.93
2023-04-24T21:19:18.837Z,4.20
2023-04-24T21:22:22.679Z,4.83
2023-04-24T21:25:27.315Z,4.90
2023-04-24T21:28:31.075Z,4.73
2023-04-24T21:31:34.348Z,5.20
2023-04-24T21:34:37.366Z,5.80
2023-04-24T21:37:40.468Z,5.40
2023-04-24T21:40:45.130Z,5.33
2023-04-24T21:43:50.425Z,6.23
2023-04-24T21:46:54.834Z,5.53
2023-04-24T21:49:58.126Z,7.27
2023-04-24T21:53:01.179Z,6.23
2023-04-24T21:56:06.579Z,6.63
2023-04-24T21:59:09.922Z,6.23
2023-04-24T22:02:13.640Z,6.53
2023-04-24T22:05:17.838Z,6.57
2023-04-24T22:08:20.925Z,6.20
2023-04-24T22:11:27.221Z,6.80
2023-04-24T22:14:30.648Z,5.97
2023-04-24T22:17:34.563Z,6.23
2023-04-24T22:20:38.110Z,6.10
2023-04-24T22:23:41.168Z,7.93
2023-04-24T22:26:45.938Z,6.67
2023-04-24T22:29:50.683Z,6.10
2023-04-24T22:32:53.852Z,5.90
2023-04-24T22:35:57.361Z,6.67
2023-04-24T22:39:00.605Z,5.50
2023-04-24T22:42:05.309Z,5.97
2023-04-24T22:45:11.633Z,5.60
2023-04-24T22:48:14.773Z,6.47
2023-04-24T22:51:18.297Z,6.10
2023-04-24T22:54:21.443Z,6.00
2023-04-24T22:57:25.926Z,6.23
2023-04-24T23:00:29.298Z,6.47
2023-04-24T23:03:33.214Z,6.33
2023-04-24T23:06:36.777Z,6.63
2023-04-24T23:09:39.768Z,6.13
2023-04-24T23:12:44.546Z,6.27
2023-04-24T23:15:47.584Z,5.93
2023-04-24T23:18:50.728Z,6.00
2023-04-24T23:21:53.807Z,5.70
2023-04-24T23:24:56.846Z,5.40
2023-04-24T23:28:01.272Z,5.57
2023-04-24T23:31:04.603Z,5.80
2023-04-24T23:34:07.669Z,6.00
2023-04-24T23:37:10.825Z,5.53
2023-04-24T23:40:14.020Z,6.10
2023-04-24T23:43:18.403Z,5.70
2023-04-24T23:46:23.020Z,5.50
2023-04-24T23:49:26.151Z,5.27
2023-04-24T23:52:29.350Z,6.00
2023-04-24T23:55:32.431Z,5.60
2023-04-24T23:58:36.980Z,5.67
